Time;durP1;ratioP1;P1;durP2;ratioP2;P2;SDS_P1;SDS_P2;PMS_P1;PMS_P2;Temp;Humidity;BMP_temperature;BMP_pressure;BME280_temperature;BME280_humidity;BME280_pressure;Samples;Min_cycle;Max_cycle;Signal;HPM_P1;HPM_P2
2023/04/05 00:01:08;;;;;;;26.60;12.90;;;;;;;-0.06;62.10;100778.41;131310;1253;106079;-75
2023/04/05 00:04:13;;;;;;;28.40;14.50;;;;;;;-0.10;62.60;100774.05;131191;1251;107562;-76
2023/04/05 00:07:20;;;;;;;31.20;14.60;;;;;;;-0.16;63.15;100770.48;131079;1253;107379;-76
2023/04/05 00:10:25;;;;;;;30.20;15.20;;;;;;;-0.29;63.16;100769.16;131070;1250;107327;-76
2023/04/05 00:13:31;;;;;;;28.40;13.50;;;;;;;-0.37;63.00;100767.23;131168;1254;107086;-77
2023/04/05 00:16:37;;;;;;;22.60;12.60;;;;;;;-0.40;62.84;100760.71;131029;1272;107673;-75
2023/04/05 00:19:43;;;;;;;26.70;12.40;;;;;;;-0.43;63.25;100757.22;131050;1254;107543;-76
2023/04/05 00:22:49;;;;;;;25.60;13.10;;;;;;;-0.50;63.61;100755.44;131300;1251;108670;-76
2023/04/05 00:25:55;;;;;;;23.70;12.10;;;;;;;-0.59;63.48;100748.83;131268;1251;106466;-76
2023/04/05 00:29:00;;;;;;;29.30;14.10;;;;;;;-0.65;63.40;100743.20;131319;1253;107553;-76
2023/04/05 00:32:06;;;;;;;26.40;12.20;;;;;;;-0.72;63.70;100739.65;130957;1254;217710;-76
2023/04/05 00:35:11;;;;;;;28.00;13.70;;;;;;;-0.78;64.12;100739.04;131091;1253;107905;-76
2023/04/05 00:38:17;;;;;;;23.20;12.70;;;;;;;-0.82;63.77;100735.36;131323;1264;107581;-76
2023/04/05 00:41:22;;;;;;;33.30;13.80;;;;;;;-0.85;63.84;100737.09;131305;1253;107529;-76
2023/04/05 00:44:33;;;;;;;65.00;21.50;;;;;;;-0.88;63.82;100736.50;131321;1251;107369;-76
2023/04/05 00:47:41;;;;;;;86.40;22.00;;;;;;;-0.90;63.89;100736.78;131404;1254;107262;-76
2023/04/05 00:50:48;;;;;;;54.40;16.40;;;;;;;-0.94;63.69;100734.67;131296;1253;107511;-76
2023/04/05 00:53:54;;;;;;;46.30;15.80;;;;;;;-0.96;64.03;100734.25;131243;1253;107536;-76
2023/04/05 00:57:00;;;;;;;36.40;15.00;;;;;;;-0.94;64.67;100727.53;131048;1251;106839;-78
2023/04/05 01:00:10;;;;;;;24.40;11.00;;;;;;;-0.93;65.93;100720.67;130995;1254;107526;-75
2023/04/05 01:03:16;;;;;;;18.70;9.80;;;;;;;-0.97;65.99;100717.23;131062;1251;107495;-75
2023/04/05 01:06:36;;;;;;;20.70;10.50;;;;;;;-1.03;66.26;100711.68;131009;1251;107483;-76
2023/04/05 01:09:53;;;;;;;17.90;10.70;;;;;;;-1.06;66.06;100710.77;131038;1253;107233;-76
2023/04/05 01:12:58;;;;;;;16.80;9.60;;;;;;;-1.10;66.52;100711.29;131050;1251;107540;-78
2023/04/05 01:16:05;;;;;;;19.00;10.50;;;;;;;-1.15;65.98;100708.05;130979;1253;107536;-76
2023/04/05 01:19:12;;;;;;;18.50;9.50;;;;;;;-1.18;66.05;100707.10;131155;1251;107634;-76
2023/04/05 01:22:45;;;;;;;21.40;10.50;;;;;;;-1.22;65.76;100704.46;131001;1253;107417;-76
2023/04/05 01:26:13;;;;;;;23.90;10.50;;;;;;;-1.19;65.41;100704.55;131090;1251;107527;-78
2023/04/05 01:29:51;;;;;;;20.80;8.90;;;;;;;-1.18;65.05;100706.05;131016;1251;107556;-76
2023/04/05 01:33:10;;;;;;;16.20;8.40;;;;;;;-1.23;65.03;100706.48;131375;1251;107536;-75
2023/04/05 01:36:23;;;;;;;16.20;8.40;;;;;;;-1.30;64.76;100703.64;131357;1253;107477;-77
2023/04/05 01:39:31;;;;;;;14.30;8.20;;;;;;;-1.39;64.55;100704.34;131345;1252;107472;-75
2023/04/05 01:42:37;;;;;;;16.40;9.20;;;;;;;-1.46;64.53;100702.71;131312;1250;106568;-75
2023/04/05 01:45:43;;;;;;;16.50;8.90;;;;;;;-1.53;64.59;100703.54;131262;1253;107229;-75
2023/04/05 01:48:49;;;;;;;16.60;9.00;;;;;;;-1.57;64.52;100704.77;131317;1251;107635;-74
2023/04/05 01:51:54;;;;;;;85.40;26.80;;;;;;;-1.62;64.53;100712.81;131020;1253;107382;-76
2023/04/05 01:55:00;;;;;;;39.90;14.90;;;;;;;-1.70;65.47;100717.34;130951;1264;107518;-75
2023/04/05 01:58:05;;;;;;;41.50;16.40;;;;;;;-1.76;65.03;100719.86;131149;1253;107272;-75
2023/04/05 02:01:11;;;;;;;36.40;15.20;;;;;;;-1.80;64.81;100721.57;131008;1251;107611;-76
2023/04/05 02:04:16;;;;;;;39.70;15.40;;;;;;;-1.87;64.67;100721.17;131057;1254;107521;-78
2023/04/05 02:07:23;;;;;;;36.10;14.70;;;;;;;-1.89;64.65;100720.75;131032;1251;107237;-76
2023/04/05 02:10:28;;;;;;;25.70;12.10;;;;;;;-1.92;64.61;100718.07;130977;1253;106298;-76
2023/04/05 02:13:34;;;;;;;23.40;11.40;;;;;;;-1.98;64.75;100722.48;131289;1263;107484;-76
2023/04/05 02:16:39;;;;;;;20.70;10.80;;;;;;;-2.06;64.61;100719.50;131134;1251;107405;-75
2023/04/05 02:19:46;;;;;;;16.90;10.20;;;;;;;-2.15;64.58;100721.45;131031;1251;108634;-76
2023/04/05 02:22:52;;;;;;;20.10;10.20;;;;;;;-2.17;64.67;100721.85;131051;1251;107355;-76
2023/04/05 02:25:58;;;;;;;19.40;9.90;;;;;;;-2.19;64.92;100719.29;131091;1254;107382;-74
2023/04/05 02:29:04;;;;;;;20.80;10.10;;;;;;;-2.20;64.67;100720.05;131061;1249;107285;-76
2023/04/05 02:32:09;;;;;;;19.90;10.50;;;;;;;-2.23;64.82;100721.05;131226;1252;107455;-76
2023/04/05 02:35:16;;;;;;;20.50;10.00;;;;;;;-2.31;64.34;100721.16;131275;1256;106635;-76
2023/04/05 02:38:21;;;;;;;20.40;10.00;;;;;;;-2.38;64.69;100722.48;131411;1251;108333;-77
2023/04/05 02:41:26;;;;;;;20.70;11.50;;;;;;;-2.37;64.83;100720.53;131327;1254;107549;-76
2023/04/05 02:44:32;;;;;;;23.20;13.40;;;;;;;-2.38;64.75;100716.89;131325;1251;107511;-76
2023/04/05 02:47:38;;;;;;;20.80;10.30;;;;;;;-2.39;64.77;100721.46;131376;1253;107471;-76
2023/04/05 02:50:49;;;;;;;23.70;13.20;;;;;;;-2.39;64.81;100722.19;131383;1252;107523;-75
2023/04/05 02:53:55;;;;;;;18.10;10.00;;;;;;;-2.41;64.71;100718.58;131277;1256;107546;-76
2023/04/05 02:57:01;;;;;;;16.30;8.70;;;;;;;-2.39;64.58;100714.16;131203;1251;107372;-76
2023/04/05 03:00:11;;;;;;;20.40;9.90;;;;;;;-2.32;64.79;100717.41;131469;1260;107518;-75
2023/04/05 03:03:17;;;;;;;18.50;9.70;;;;;;;-2.27;64.56;100719.48;131174;1251;107478;-75
2023/04/05 03:06:22;;;;;;;21.70;10.50;;;;;;;-2.25;64.37;100720.25;131198;1253;107330;-76
2023/04/05 03:09:32;;;;;;;55.00;19.60;;;;;;;-2.27;64.33;100717.37;131233;1253;107526;-75
2023/04/05 03:12:40;;;;;;;27.50;12.20;;;;;;;-2.38;64.27;100714.84;131045;1253;107472;-76
2023/04/05 03:15:46;;;;;;;18.00;9.70;;;;;;;-2.48;64.29;100717.45;131036;1254;107342;-75
2023/04/05 03:18:53;;;;;;;17.80;9.00;;;;;;;-2.53;64.42;100718.17;131070;1249;107477;-77
2023/04/05 03:21:59;;;;;;;17.40;8.60;;;;;;;-2.54;64.66;100716.33;131027;1251;107627;-76
2023/04/05 03:25:09;;;;;;;13.90;7.90;;;;;;;-2.61;64.30;100715.00;131064;1254;107666;-76
2023/04/05 03:28:20;;;;;;;17.70;8.20;;;;;;;-2.73;64.16;100715.96;131036;1251;107448;-75
2023/04/05 03:31:29;;;;;;;14.20;8.10;;;;;;;-2.90;64.29;100719.73;131042;1251;107469;-76
2023/04/05 03:34:37;;;;;;;15.50;8.40;;;;;;;-2.96;64.31;100724.80;131051;1254;107463;-75
2023/04/05 03:37:43;;;;;;;16.30;8.30;;;;;;;-3.01;64.40;100725.34;131030;1254;107456;-75
2023/04/05 03:40:49;;;;;;;16.10;8.30;;;;;;;-3.01;64.56;100723.95;131063;1260;106459;-76
2023/04/05 03:43:54;;;;;;;17.70;9.10;;;;;;;-3.02;64.24;100727.46;131072;1253;107512;-78
2023/04/05 03:47:01;;;;;;;16.60;8.90;;;;;;;-3.07;64.13;100729.23;130990;1253;107445;-76
2023/04/05 03:50:10;;;;;;;15.00;8.10;;;;;;;-3.13;64.51;100730.48;131068;1253;107546;-75
2023/04/05 03:53:17;;;;;;;17.00;8.70;;;;;;;-3.14;64.65;100728.79;131223;1253;107504;-75
2023/04/05 03:56:28;;;;;;;14.60;7.70;;;;;;;-3.16;64.23;100731.64;131257;1253;107539;-75
2023/04/05 03:59:34;;;;;;;52.00;24.40;;;;;;;-3.22;64.52;100729.89;131105;1254;108659;-75
2023/04/05 04:02:40;;;;;;;253.20;56.60;;;;;;;-3.21;64.50;100730.58;131277;1253;107526;-75
2023/04/05 04:05:46;;;;;;;135.30;33.20;;;;;;;-3.23;64.48;100724.55;131010;1263;107536;-76
2023/04/05 04:09:09;;;;;;;89.60;24.90;;;;;;;-3.25;64.71;100725.85;131077;1254;107541;-75
2023/04/05 04:12:14;;;;;;;57.10;18.70;;;;;;;-3.26;64.70;100723.09;131366;1253;107550;-76
2023/04/05 04:15:28;;;;;;;43.90;16.70;;;;;;;-3.25;64.79;100732.11;131250;1254;107344;-75
2023/04/05 04:19:00;;;;;;;36.80;13.90;;;;;;;-3.26;64.55;100736.66;130949;1259;108137;-75
2023/04/05 04:22:25;;;;;;;21.20;10.00;;;;;;;-3.29;64.42;100735.55;131102;1253;107404;-75
2023/04/05 04:25:53;;;;;;;17.60;8.80;;;;;;;-3.37;64.73;100736.33;131042;1253;107524;-75
2023/04/05 04:29:17;;;;;;;13.50;7.70;;;;;;;-3.34;64.91;100737.27;131100;1254;107537;-75
2023/04/05 04:32:53;;;;;;;48.90;20.00;;;;;;;-3.29;64.80;100738.50;130960;1260;106459;-74
2023/04/05 04:36:12;;;;;;;36.80;15.10;;;;;;;-3.20;64.86;100739.06;131093;1263;107539;-76
2023/04/05 04:40:05;;;;;;;26.10;12.10;;;;;;;-3.04;64.96;100741.11;131113;1253;107508;-75
2023/04/05 04:43:46;;;;;;;22.60;9.50;;;;;;;-2.85;65.05;100743.20;131163;1251;106353;-75
2023/04/05 04:46:55;;;;;;;34.70;15.10;;;;;;;-2.68;64.93;100742.25;131571;1254;107424;-77
2023/04/05 04:50:18;;;;;;;26.80;13.00;;;;;;;-2.50;65.04;100742.29;131416;1256;107542;-74
2023/04/05 04:53:24;;;;;;;16.50;9.60;;;;;;;-2.32;65.01;100744.75;131448;1254;107645;-76
2023/04/05 04:56:29;;;;;;;18.70;9.80;;;;;;;-2.15;65.35;100742.16;131406;1257;107444;-75
2023/04/05 04:59:37;;;;;;;23.20;12.10;;;;;;;-1.98;65.29;100739.55;131112;1253;107474;-77
2023/04/05 05:02:44;;;;;;;23.30;11.10;;;;;;;-1.86;65.10;100740.16;131426;1254;107396;-73
2023/04/05 05:05:53;;;;;;;26.20;12.50;;;;;;;-1.83;65.15;100745.57;131378;1254;107529;-75
2023/04/05 05:09:02;;;;;;;33.50;16.30;;;;;;;-1.80;64.99;100745.67;131330;1253;107644;-76
2023/04/05 05:12:10;;;;;;;22.80;11.80;;;;;;;-1.79;65.14;100745.96;131208;1256;107530;-75
2023/04/05 05:15:15;;;;;;;26.80;16.50;;;;;;;-1.80;65.47;100740.05;131518;1254;107562;-75
2023/04/05 05:18:21;;;;;;;32.60;16.20;;;;;;;-1.75;65.35;100743.73;131359;1253;107507;-76
2023/04/05 05:21:26;;;;;;;31.10;16.40;;;;;;;-1.69;65.51;100747.15;131743;1254;106945;-76
2023/04/05 05:24:36;;;;;;;36.00;16.90;;;;;;;-1.62;65.41;100746.31;131636;1254;107938;-76
2023/04/05 05:27:41;;;;;;;99.60;36.40;;;;;;;-1.53;65.77;100748.24;131360;1253;108011;-76
2023/04/05 05:30:47;;;;;;;55.80;24.10;;;;;;;-1.44;65.48;100746.95;131265;1254;107644;-75
2023/04/05 05:33:53;;;;;;;59.00;27.20;;;;;;;-1.31;65.83;100750.09;131475;1253;108708;-76
2023/04/05 05:36:58;;;;;;;54.60;26.20;;;;;;;-1.14;66.03;100753.92;131680;1253;107538;-76
2023/04/05 05:40:05;;;;;;;25.40;14.40;;;;;;;-1.00;65.88;100757.48;131616;1254;106777;-74
2023/04/05 05:43:11;;;;;;;22.40;13.10;;;;;;;-0.84;66.15;100752.23;131237;1254;107250;-74
2023/04/05 05:46:18;;;;;;;26.70;14.10;;;;;;;-0.62;66.13;100751.59;131317;1254;107555;-76
2023/04/05 05:49:24;;;;;;;23.70;12.70;;;;;;;-0.37;66.26;100755.70;131739;1254;107228;-76
2023/04/05 05:52:29;;;;;;;24.70;13.20;;;;;;;-0.12;66.20;100756.84;131510;1254;107576;-74
2023/04/05 05:55:35;;;;;;;25.40;14.10;;;;;;;0.12;66.24;100754.98;131533;1263;107551;-75
2023/04/05 05:58:40;;;;;;;27.10;15.10;;;;;;;0.32;66.08;100751.94;131389;1253;109370;-76
2023/04/05 06:01:50;;;;;;;24.10;12.80;;;;;;;0.49;66.17;100752.66;131144;1263;107198;-77
2023/04/05 06:04:56;;;;;;;66.40;36.30;;;;;;;0.63;66.07;100754.77;131187;1254;107368;-77
2023/04/05 06:08:02;;;;;;;35.60;17.70;;;;;;;0.77;66.13;100753.70;131176;1272;107202;-78
2023/04/05 06:11:25;;;;;;;29.20;14.80;;;;;;;0.81;65.85;100753.48;131511;1253;110102;-76
2023/04/05 06:14:31;;;;;;;29.40;15.70;;;;;;;0.79;65.61;100760.45;131517;1251;107667;-76
2023/04/05 06:17:41;;;;;;;24.30;12.10;;;;;;;0.76;65.79;100762.66;131611;1260;107543;-76
2023/04/05 06:20:46;;;;;;;22.80;11.50;;;;;;;0.70;65.97;100763.15;131468;1252;107466;-75
2023/04/05 06:23:52;;;;;;;21.50;11.60;;;;;;;0.74;66.08;100765.39;131401;1253;106156;-76
2023/04/05 06:26:57;;;;;;;26.10;11.80;;;;;;;0.89;66.04;100766.41;131486;1263;107637;-76
2023/04/05 06:30:03;;;;;;;19.70;12.00;;;;;;;0.98;65.88;100764.19;131307;1253;107584;-76
2023/04/05 06:33:08;;;;;;;23.30;13.30;;;;;;;1.02;65.87;100761.02;131649;1254;106720;-72
2023/04/05 06:36:13;;;;;;;24.50;11.50;;;;;;;1.06;66.03;100763.28;131730;1250;107489;-78
2023/04/05 06:39:19;;;;;;;21.60;12.00;;;;;;;1.07;65.65;100767.73;131154;1253;107534;-76
2023/04/05 06:42:25;;;;;;;23.30;12.50;;;;;;;1.13;65.93;100766.57;131113;1251;107196;-77
2023/04/05 06:45:32;;;;;;;23.60;12.80;;;;;;;1.28;65.82;100764.23;131360;1254;107466;-75
2023/04/05 06:48:38;;;;;;;22.40;12.60;;;;;;;1.30;65.68;100764.79;131195;1254;107478;-77
2023/04/05 06:51:44;;;;;;;27.10;12.80;;;;;;;1.36;65.17;100766.07;131177;1262;107358;-76
2023/04/05 06:54:50;;;;;;;23.40;12.60;;;;;;;1.21;65.14;100767.71;131346;1257;107448;-76
2023/04/05 06:57:55;;;;;;;26.00;14.20;;;;;;;1.04;65.36;100763.38;131118;1253;108120;-76
2023/04/05 07:01:01;;;;;;;28.80;14.80;;;;;;;0.91;65.71;100761.39;131310;1253;107409;-76
2023/04/05 07:04:07;;;;;;;30.10;14.50;;;;;;;0.87;65.76;100764.25;131605;1254;107530;-76
2023/04/05 07:07:12;;;;;;;24.00;12.10;;;;;;;0.94;65.71;100765.30;131226;1254;108366;-75
2023/04/05 07:10:18;;;;;;;19.10;10.20;;;;;;;0.96;65.59;100764.09;131138;1251;107474;-76
2023/04/05 07:13:24;;;;;;;18.60;10.20;;;;;;;1.01;65.52;100768.61;131119;1263;107597;-76
2023/04/05 07:16:30;;;;;;;21.50;11.30;;;;;;;1.17;65.56;100766.18;131519;1252;107522;-78
2023/04/05 07:19:36;;;;;;;21.00;11.30;;;;;;;1.36;65.34;100764.81;131519;1260;106638;-78
2023/04/05 07:22:41;;;;;;;21.80;11.70;;;;;;;1.59;65.50;100764.69;131255;1251;107543;-78
2023/04/05 07:25:47;;;;;;;21.00;11.60;;;;;;;1.81;65.11;100766.30;131119;1254;107344;-77
2023/04/05 07:28:52;;;;;;;22.80;12.00;;;;;;;2.01;65.04;100766.92;131139;1253;107507;-77
2023/04/05 07:31:58;;;;;;;17.00;9.40;;;;;;;2.35;64.42;100763.62;131166;1264;107501;-78
2023/04/05 07:35:04;;;;;;;15.00;9.00;;;;;;;2.57;63.64;100763.75;131146;1251;107464;-78
2023/04/05 07:38:10;;;;;;;16.80;9.10;;;;;;;2.71;63.09;100765.56;131546;1254;107226;-77
2023/04/05 07:41:18;;;;;;;20.00;10.30;;;;;;;2.90;63.84;100764.95;131240;1254;107528;-79
2023/04/05 07:44:24;;;;;;;18.20;9.00;;;;;;;3.11;63.31;100764.23;131178;1264;107233;-77
2023/04/05 07:47:30;;;;;;;15.70;8.30;;;;;;;3.18;62.06;100765.25;131163;1272;107279;-77
2023/04/05 07:50:38;;;;;;;13.00;8.60;;;;;;;3.18;60.72;100760.51;131458;1251;105979;-76
2023/04/05 07:53:43;;;;;;;10.70;6.70;;;;;;;3.21;61.92;100759.23;131308;1260;107369;-76
2023/04/05 07:56:49;;;;;;;13.40;7.60;;;;;;;3.35;62.19;100760.68;131270;1255;107488;-77
2023/04/05 07:59:55;;;;;;;12.50;7.70;;;;;;;3.56;62.21;100762.05;131333;1262;107315;-75
2023/04/05 08:03:01;;;;;;;10.80;6.30;;;;;;;3.72;60.94;100760.84;131257;1253;107517;-77
2023/04/05 08:06:13;;;;;;;10.30;6.20;;;;;;;3.79;60.82;100762.19;131197;1253;107281;-78
2023/04/05 08:09:19;;;;;;;10.00;5.30;;;;;;;3.80;60.92;100761.60;131168;1253;107491;-78
2023/04/05 08:12:24;;;;;;;9.90;5.70;;;;;;;3.89;59.95;100769.66;131187;1261;107498;-77
2023/04/05 08:15:29;;;;;;;9.80;5.90;;;;;;;3.99;60.60;100769.23;131150;1261;107370;-78
2023/04/05 08:18:35;;;;;;;8.80;5.20;;;;;;;4.03;59.78;100768.05;131225;1263;107591;-78
2023/04/05 08:21:40;;;;;;;7.20;3.90;;;;;;;4.08;59.47;100770.90;131217;1251;107558;-77
2023/04/05 08:24:46;;;;;;;8.90;3.90;;;;;;;4.17;58.51;100771.23;131215;1264;107239;-76
2023/04/05 08:27:51;;;;;;;6.50;3.60;;;;;;;4.20;58.16;100772.27;131201;1262;107522;-77
2023/04/05 08:30:57;;;;;;;6.40;2.80;;;;;;;4.18;57.55;100770.08;131158;1251;107489;-78
2023/04/05 08:34:04;;;;;;;5.70;3.00;;;;;;;4.23;57.40;100765.70;131133;1253;107377;-78
2023/04/05 08:37:09;;;;;;;4.10;2.00;;;;;;;4.20;55.54;100771.85;131221;1252;107283;-77
2023/04/05 08:40:16;;;;;;;2.80;1.70;;;;;;;4.09;54.20;100769.58;131386;1254;108697;-76
2023/04/05 08:43:28;;;;;;;8.70;4.70;;;;;;;4.05;55.40;100770.52;131456;1251;107325;-77
2023/04/05 08:46:33;;;;;;;;;;;;;;;4.12;56.47;100770.62;131190;1272;108029;-77
2023/04/05 08:49:44;;;;;;;4.00;2.30;;;;;;;4.23;54.55;100767.81;131272;1265;107364;-77
2023/04/05 08:52:49;;;;;;;5.10;3.10;;;;;;;4.22;55.09;100764.68;131281;1252;107520;-77
2023/04/05 08:55:57;;;;;;;4.70;2.90;;;;;;;4.16;53.75;100766.35;131149;1254;107513;-78
2023/04/05 08:59:06;;;;;;;4.70;2.90;;;;;;;4.15;55.61;100768.86;131145;1254;107514;-77
2023/04/05 09:02:18;;;;;;;4.00;2.70;;;;;;;4.33;56.18;100762.73;131183;1255;107481;-76
2023/04/05 09:05:23;;;;;;;;;;;;;;;4.57;56.17;100763.48;131476;1252;107592;-77
2023/04/05 09:08:29;;;;;;;5.10;2.80;;;;;;;4.79;55.82;100755.67;131142;1263;107499;-78
2023/04/05 09:11:35;;;;;;;5.40;3.20;;;;;;;4.95;55.67;100755.13;131085;1253;107539;-77
2023/04/05 09:14:41;;;;;;;6.30;3.40;;;;;;;5.01;55.18;100755.09;131119;1251;107355;-77
2023/04/05 09:17:48;;;;;;;5.70;3.30;;;;;;;5.06;55.34;100757.14;131095;1254;105921;-77
2023/04/05 09:21:01;;;;;;;4.30;3.10;;;;;;;5.08;54.72;100757.42;131174;1254;107267;-78
2023/04/05 09:24:07;;;;;;;5.20;3.20;;;;;;;5.05;55.33;100759.73;131192;1251;107419;-77
2023/04/05 09:27:15;;;;;;;15.20;8.50;;;;;;;5.05;55.20;100755.48;131119;1251;107504;-77
2023/04/05 09:30:24;;;;;;;8.20;5.10;;;;;;;4.96;54.04;100754.67;131134;1254;107371;-76
2023/04/05 09:33:31;;;;;;;4.80;3.30;;;;;;;4.97;54.60;100752.28;131166;1254;107632;-75
2023/04/05 09:36:43;;;;;;;5.20;3.20;;;;;;;5.05;54.20;100752.64;131210;1252;106769;-76
2023/04/05 09:39:50;;;;;;;5.30;3.40;;;;;;;5.18;54.02;100749.48;131200;1251;107424;-76
2023/04/05 09:42:56;;;;;;;5.20;3.00;;;;;;;5.37;54.15;100749.05;131149;1253;107137;-76
2023/04/05 09:46:02;;;;;;;5.30;3.60;;;;;;;5.47;52.74;100743.23;131162;1251;107258;-76
2023/04/05 09:49:09;;;;;;;4.60;3.30;;;;;;;5.47;53.24;100744.09;131165;1251;107481;-76
2023/04/05 09:52:22;;;;;;;5.70;3.50;;;;;;;5.57;53.11;100746.76;131094;1263;108070;-76
2023/04/05 09:55:29;;;;;;;6.80;4.10;;;;;;;5.64;52.67;100744.31;131097;1260;107485;-76
2023/04/05 09:58:34;;;;;;;6.90;4.10;;;;;;;5.60;51.67;100744.61;131167;1254;107344;-78
2023/04/05 10:01:44;;;;;;;5.10;3.10;;;;;;;5.37;49.68;100751.83;131381;1251;107648;-75
2023/04/05 10:04:50;;;;;;;6.00;3.30;;;;;;;5.17;49.04;100755.41;131216;1251;107512;-76
2023/04/05 10:07:56;;;;;;;6.60;3.20;;;;;;;5.02;52.01;100748.98;131169;1252;108426;-76
2023/04/05 10:11:06;;;;;;;8.10;4.60;;;;;;;5.10;52.42;100751.80;130991;1251;107731;-75
2023/04/05 10:14:11;;;;;;;5.30;3.50;;;;;;;5.12;52.08;100751.31;131130;1253;107510;-75
2023/04/05 10:17:24;;;;;;;6.80;4.00;;;;;;;5.07;51.49;100747.04;131317;1251;107538;-76
2023/04/05 10:20:31;;;;;;;5.50;3.20;;;;;;;5.04;52.75;100741.60;131191;1254;107662;-77
2023/04/05 10:23:41;;;;;;;4.90;2.90;;;;;;;5.24;52.62;100740.27;131129;1272;108435;-77
2023/04/05 10:26:54;;;;;;;5.20;2.60;;;;;;;5.38;52.26;100739.48;131122;1269;107515;-76
2023/04/05 10:30:07;;;;;;;5.50;2.60;;;;;;;5.50;52.04;100740.36;131136;1251;107419;-76
2023/04/05 10:33:21;;;;;;;8.00;3.30;;;;;;;5.48;48.11;100736.08;131175;1260;107610;-76
2023/04/05 10:36:38;;;;;;;3.80;2.90;;;;;;;5.12;48.95;100735.46;131125;1251;107591;-76
2023/04/05 10:39:47;;;;;;;5.10;2.70;;;;;;;5.02;49.36;100735.03;131294;1267;107331;-76
2023/04/05 10:42:52;;;;;;;5.00;3.00;;;;;;;4.87;46.73;100735.02;131073;1251;107416;-76
2023/04/05 10:45:59;;;;;;;4.70;2.80;;;;;;;4.76;46.87;100733.83;131228;1253;105793;-74
2023/04/05 10:49:12;;;;;;;74.70;50.40;;;;;;;4.76;48.35;100728.39;131386;1253;106485;-75
2023/04/05 10:52:19;;;;;;;9.10;5.10;;;;;;;4.88;47.28;100722.78;131165;1251;107368;-74
2023/04/05 10:55:25;;;;;;;14.60;9.00;;;;;;;4.81;45.94;100720.66;131120;1254;107491;-75
2023/04/05 10:58:32;;;;;;;16.30;9.40;;;;;;;4.80;48.11;100716.69;131095;1253;107552;-75
2023/04/05 11:01:39;;;;;;;11.50;6.50;;;;;;;4.89;48.25;100717.41;131107;1251;107543;-75
2023/04/05 11:04:45;;;;;;;7.90;4.80;;;;;;;5.05;48.99;100710.84;131151;1254;109283;-76
2023/04/05 11:07:51;;;;;;;5.80;3.30;;;;;;;5.27;49.63;100709.35;131102;1253;107641;-74
2023/04/05 11:10:57;;;;;;;9.70;5.70;;;;;;;5.45;49.67;100709.52;131396;1253;107540;-74
2023/04/05 11:14:16;;;;;;;6.80;3.70;;;;;;;5.48;46.04;100707.88;131072;1254;107663;-75
2023/04/05 11:17:29;;;;;;;9.30;5.80;;;;;;;5.32;48.55;100710.23;131071;1254;108093;-75
2023/04/05 11:20:51;;;;;;;5.10;3.10;;;;;;;5.34;48.59;100709.39;131337;1254;107269;-73
2023/04/05 11:24:05;;;;;;;5.90;4.40;;;;;;;5.45;47.41;100710.38;131351;1251;107500;-73
2023/04/05 11:27:12;;;;;;;4.40;2.80;;;;;;;5.43;47.59;100707.66;131270;1250;107377;-75
2023/04/05 11:30:51;;;;;;;3.00;2.20;;;;;;;5.39;48.05;100709.58;131328;1251;107600;-73
2023/04/05 11:33:59;;;;;;;4.30;2.80;;;;;;;5.40;47.72;100708.40;131430;1250;107452;-73
2023/04/05 11:37:04;;;;;;;7.50;4.80;;;;;;;5.26;45.87;100708.71;131366;1251;107890;-75
2023/04/05 11:40:30;;;;;;;5.30;3.20;;;;;;;5.04;47.53;100707.60;131250;1254;107499;-74
2023/04/05 11:43:38;;;;;;;4.50;3.10;;;;;;;5.02;47.89;100706.52;131180;1254;107495;-74
2023/04/05 11:46:45;;;;;;;6.70;4.20;;;;;;;4.97;47.90;100706.52;131167;1253;106575;-74
2023/04/05 11:49:52;;;;;;;5.20;3.10;;;;;;;4.89;47.51;100707.76;131228;1253;106527;-73
2023/04/05 11:53:17;;;;;;;5.40;2.70;;;;;;;4.88;48.43;100706.55;131419;1253;107464;-73
2023/04/05 11:56:22;;;;;;;15.60;9.70;;;;;;;5.00;48.30;100700.48;131411;1271;107477;-74
2023/04/05 11:59:33;;;;;;;5.50;3.70;;;;;;;5.03;47.12;100707.68;131259;1254;106569;-75
2023/04/05 12:02:42;;;;;;;7.10;3.90;;;;;;;5.00;47.41;100700.48;131237;1251;107283;-75
2023/04/05 12:05:52;;;;;;;5.70;3.50;;;;;;;4.92;46.05;100702.04;131138;1266;107285;-75
2023/04/05 12:08:58;;;;;;;10.90;6.20;;;;;;;4.87;46.05;100700.14;131363;1251;107378;-74
2023/04/05 12:12:03;;;;;;;16.00;7.20;;;;;;;5.13;47.77;100695.16;131149;1253;107477;-74
2023/04/05 12:15:13;;;;;;;4.50;3.00;;;;;;;5.39;45.60;100699.85;131144;1251;107889;-78
2023/04/05 12:18:18;;;;;;;4.30;2.70;;;;;;;5.41;44.96;100695.86;131128;1251;107362;-76
2023/04/05 12:21:26;;;;;;;25.10;10.80;;;;;;;5.54;47.25;100692.14;131026;1251;107427;-75
2023/04/05 12:24:31;;;;;;;14.50;7.10;;;;;;;5.69;47.09;100688.71;131167;1267;107538;-74
2023/04/05 12:27:37;;;;;;;5.10;3.10;;;;;;;5.71;45.11;100692.48;131195;1254;107539;-75
2023/04/05 12:30:51;;;;;;;5.50;3.20;;;;;;;5.35;43.63;100695.00;131405;1253;107234;-74
2023/04/05 12:34:00;;;;;;;6.80;3.50;;;;;;;5.17;45.05;100697.90;131092;1254;107551;-74
2023/04/05 12:37:06;;;;;;;4.50;2.70;;;;;;;5.07;44.73;100689.61;131151;1254;107545;-74
2023/04/05 12:40:12;;;;;;;9.00;5.00;;;;;;;5.11;45.75;100685.94;131097;1263;107206;-76
2023/04/05 12:43:19;;;;;;;5.50;2.80;;;;;;;5.14;43.43;100692.29;131100;1253;107637;-74
2023/04/05 12:46:40;;;;;;;5.70;3.00;;;;;;;5.08;44.41;100691.41;131135;1252;107484;-73
2023/04/05 12:49:45;;;;;;;4.30;2.70;;;;;;;5.26;45.10;100689.81;131190;1251;107507;-70
2023/04/05 12:53:04;;;;;;;4.10;2.60;;;;;;;5.49;45.51;100688.39;131069;1266;107912;-74
2023/04/05 12:56:12;;;;;;;4.00;2.70;;;;;;;5.72;44.10;100686.89;131080;1251;107519;-75
2023/04/05 12:59:17;;;;;;;5.80;3.20;;;;;;;5.82;45.56;100680.88;131107;1254;105844;-75
2023/04/05 13:02:23;;;;;;;5.00;3.50;;;;;;;5.91;45.38;100686.55;131349;1252;107534;-73
2023/04/05 13:05:30;;;;;;;6.10;3.70;;;;;;;5.86;44.27;100691.15;131186;1253;108800;-75
2023/04/05 13:08:35;;;;;;;6.90;3.10;;;;;;;5.81;45.39;100694.93;130993;1253;107525;-73
2023/04/05 13:11:40;;;;;;;12.90;8.30;;;;;;;5.76;44.54;100694.55;131084;1272;107483;-75
2023/04/05 13:14:46;;;;;;;3.70;2.90;;;;;;;5.55;43.35;100695.75;130967;1249;107505;-73
2023/04/05 13:17:53;;;;;;;7.30;4.90;;;;;;;5.43;44.65;100693.91;131400;1264;107518;-74
2023/04/05 13:20:59;;;;;;;4.70;2.80;;;;;;;5.55;45.99;100689.92;131182;1253;108100;-75
2023/04/05 13:24:05;;;;;;;4.80;3.50;;;;;;;5.80;45.85;100688.09;131154;1266;108571;-73
2023/04/05 13:27:10;;;;;;;6.20;3.30;;;;;;;5.98;44.45;100685.55;131108;1255;107544;-75
2023/04/05 13:30:17;;;;;;;6.00;3.80;;;;;;;6.02;45.32;100681.79;131164;1251;107533;-75
2023/04/05 13:33:23;;;;;;;13.40;6.20;;;;;;;6.17;44.23;100681.74;131166;1253;105865;-74
2023/04/05 13:36:29;;;;;;;10.00;4.10;;;;;;;6.34;45.60;100681.50;131202;1251;107566;-74
2023/04/05 13:39:35;;;;;;;6.10;3.50;;;;;;;6.53;44.69;100678.64;131141;1253;107234;-74
2023/04/05 13:42:40;;;;;;;4.50;3.10;;;;;;;6.62;44.67;100675.88;131140;1250;107629;-75
2023/04/05 13:45:46;;;;;;;6.30;3.70;;;;;;;6.51;44.06;100683.55;131179;1254;107519;-74
2023/04/05 13:48:51;;;;;;;7.70;6.60;;;;;;;6.25;42.94;100684.33;131169;1252;107481;-73
2023/04/05 13:51:57;;;;;;;21.40;13.60;;;;;;;5.94;43.72;100684.95;131168;1250;107669;-73
2023/04/05 13:55:03;;;;;;;10.10;5.30;;;;;;;5.76;43.83;100689.29;131143;1251;108635;-73
2023/04/05 13:58:08;;;;;;;11.60;9.00;;;;;;;5.61;44.29;100688.92;131074;1252;107352;-72
2023/04/05 14:01:14;;;;;;;11.50;7.60;;;;;;;5.55;44.69;100688.13;131135;1250;107368;-73
2023/04/05 14:04:20;;;;;;;11.70;9.30;;;;;;;5.56;44.52;100688.63;131079;1250;107488;-74
2023/04/05 14:07:26;;;;;;;6.90;5.10;;;;;;;5.52;44.38;100686.74;131313;1253;106698;-73
2023/04/05 14:10:32;;;;;;;8.80;5.90;;;;;;;5.49;45.25;100686.95;131297;1250;106679;-74
2023/04/05 14:13:37;;;;;;;10.30;8.30;;;;;;;5.48;45.01;100687.40;131017;1251;107533;-74